createdAt,value
2019-05-16T00:02:25.737Z,11.78
2019-05-16T00:04:59.000Z,11.78
2019-05-16T00:07:29.064Z,11.77
2019-05-16T00:09:59.787Z,11.78
2019-05-16T00:12:30.697Z,11.79
2019-05-16T00:15:01.630Z,11.78
2019-05-16T00:17:33.489Z,11.77
2019-05-16T00:20:04.532Z,11.77
2019-05-16T00:22:35.547Z,11.77
2019-05-16T00:25:08.492Z,11.76
2019-05-16T00:27:38.900Z,11.74
2019-05-16T00:30:10.007Z,11.76
2019-05-16T00:32:41.798Z,11.75
2019-05-16T00:35:12.687Z,11.76
2019-05-16T00:37:43.527Z,11.77
2019-05-16T00:40:14.517Z,11.76
2019-05-16T00:42:48.897Z,11.76
2019-05-16T00:45:19.357Z,11.78
2019-05-16T00:47:50.468Z,11.79
2019-05-16T00:50:21.339Z,11.80
2019-05-16T00:52:52.385Z,11.79
2019-05-16T00:55:24.568Z,11.79
2019-05-16T00:57:55.712Z,11.80
2019-05-16T01:00:38.707Z,11.80
2019-05-16T01:03:09.638Z,11.81
2019-05-16T01:05:40.589Z,11.82
2019-05-16T01:08:13.578Z,11.82
2019-05-16T01:10:45.118Z,11.82
2019-05-16T01:13:18.388Z,11.81
2019-05-16T01:15:48.880Z,11.81
2019-05-16T01:18:19.747Z,11.82
2019-05-16T01:20:50.715Z,11.82
2019-05-16T01:23:21.917Z,11.83
2019-05-16T01:25:52.937Z,11.85
2019-05-16T01:28:24.998Z,11.86
2019-05-16T01:30:57.845Z,11.86
2019-05-16T01:33:28.333Z,11.85
2019-05-16T01:35:59.273Z,11.85
2019-05-16T01:38:29.977Z,11.84
2019-05-16T01:41:00.789Z,11.83
2019-05-16T01:43:31.757Z,11.81
2019-05-16T01:46:02.937Z,11.77
2019-05-16T01:48:34.387Z,11.81
2019-05-16T01:51:07.608Z,11.78
2019-05-16T01:53:39.512Z,11.78
2019-05-16T01:56:11.637Z,11.77
2019-05-16T01:58:42.697Z,11.76
2019-05-16T02:01:15.882Z,11.73
2019-05-16T02:03:48.100Z,11.72
2019-05-16T02:06:19.345Z,11.70
2019-05-16T02:08:50.333Z,11.69
2019-05-16T02:11:21.327Z,11.68
2019-05-16T02:13:52.188Z,11.65
2019-05-16T02:16:23.097Z,11.65
2019-05-16T02:18:54.307Z,11.65
2019-05-16T02:21:25.147Z,11.64
2019-05-16T02:23:58.655Z,11.64
2019-05-16T02:26:28.588Z,11.64
2019-05-16T02:29:00.827Z,11.64
2019-05-16T02:31:32.468Z,11.64
2019-05-16T02:34:04.759Z,11.66
2019-05-16T02:36:36.067Z,11.65
2019-05-16T02:39:10.923Z,11.65
2019-05-16T02:41:42.585Z,11.65
2019-05-16T02:44:13.037Z,11.65
2019-05-16T02:46:44.118Z,11.65
2019-05-16T02:49:15.228Z,11.65
2019-05-16T02:51:46.448Z,11.64
2019-05-16T02:54:21.049Z,11.65
2019-05-16T02:56:50.640Z,11.63
2019-05-16T02:59:21.748Z,11.63
2019-05-16T03:01:52.888Z,11.63
2019-05-16T03:04:24.037Z,11.63
2019-05-16T03:06:55.559Z,11.63
2019-05-16T03:09:26.848Z,11.64
2019-05-16T03:12:01.283Z,11.65
2019-05-16T03:14:32.459Z,11.64
2019-05-16T03:17:05.358Z,11.64
2019-05-16T03:19:37.730Z,11.63
2019-05-16T03:22:11.455Z,11.64
2019-05-16T03:24:42.274Z,11.64
2019-05-16T03:27:14.336Z,11.63
2019-05-16T03:29:45.318Z,11.59
2019-05-16T03:32:16.268Z,11.61
2019-05-16T03:34:47.509Z,11.56
2019-05-16T03:37:24.353Z,11.55
2019-05-16T03:39:51.562Z,11.52
2019-05-16T03:42:22.808Z,11.47
2019-05-16T03:44:54.117Z,11.48
2019-05-16T03:47:25.353Z,11.48
2019-05-16T03:49:56.487Z,11.47
2019-05-16T03:52:30.782Z,11.46
2019-05-16T03:55:02.046Z,11.46
2019-05-16T03:57:33.100Z,11.44
2019-05-16T04:00:04.018Z,11.45
2019-05-16T04:02:35.581Z,11.47
2019-05-16T04:05:06.753Z,11.50
2019-05-16T04:07:41.057Z,11.52
2019-05-16T04:10:11.587Z,11.52
2019-05-16T04:12:42.608Z,11.54
2019-05-16T04:15:13.651Z,11.57
2019-05-16T04:17:44.679Z,11.59
2019-05-16T04:20:17.050Z,11.62
2019-05-16T04:22:51.060Z,11.63
2019-05-16T04:25:21.704Z,11.67
2019-05-16T04:27:53.221Z,11.66
2019-05-16T04:30:24.221Z,11.68
2019-05-16T04:32:55.617Z,11.72
2019-05-16T04:35:26.827Z,11.77
2019-05-16T04:38:01.600Z,11.79
2019-05-16T04:40:31.264Z,11.85
2019-05-16T04:43:02.369Z,11.88
2019-05-16T04:45:33.419Z,11.93
2019-05-16T04:48:04.497Z,11.96
2019-05-16T04:50:35.583Z,11.95
2019-05-16T04:53:06.808Z,11.97
2019-05-16T04:55:37.797Z,11.96
2019-05-16T04:58:10.650Z,11.94
2019-05-16T05:00:42.104Z,11.94
2019-05-16T05:03:14.707Z,11.94
2019-05-16T05:05:45.676Z,11.97
2019-05-16T05:08:16.860Z,12.00
2019-05-16T05:10:50.967Z,12.09
2019-05-16T05:13:22.089Z,12.19
2019-05-16T05:15:53.528Z,12.19
2019-05-16T05:18:24.387Z,12.31
2019-05-16T05:20:56.017Z,12.38
2019-05-16T05:23:29.945Z,12.44
2019-05-16T05:26:00.438Z,12.47
2019-05-16T05:28:31.787Z,12.56
2019-05-16T05:31:02.785Z,12.61
2019-05-16T05:33:33.807Z,12.61
2019-05-16T05:36:04.779Z,12.67
2019-05-16T05:38:36.117Z,12.69
2019-05-16T05:41:07.047Z,12.75
2019-05-16T05:43:39.767Z,12.80
2019-05-16T05:46:11.577Z,12.82
2019-05-16T05:48:42.467Z,12.86
2019-05-16T05:51:13.569Z,12.86
2019-05-16T05:53:44.640Z,12.80
2019-05-16T05:56:15.627Z,12.79
2019-05-16T05:58:46.528Z,12.79
2019-05-16T06:01:20.253Z,12.83
2019-05-16T06:03:50.488Z,12.89
2019-05-16T06:06:21.927Z,12.94
2019-05-16T06:08:53.057Z,13.03
2019-05-16T06:11:24.077Z,13.08
2019-05-16T06:13:54.987Z,13.13
2019-05-16T06:16:25.758Z,13.15
2019-05-16T06:18:56.969Z,13.15
2019-05-16T06:21:33.046Z,13.19
2019-05-16T06:24:00.567Z,13.25
2019-05-16T06:26:31.535Z,13.24
2019-05-16T06:29:02.747Z,13.17
2019-05-16T06:31:33.660Z,13.15
2019-05-16T11:23:23.015Z,16.19
2019-05-16T11:25:55.350Z,16.31
2019-05-16T11:28:26.654Z,16.43
2019-05-16T11:31:03.214Z,16.44
2019-05-16T11:33:33.248Z,16.49
2019-05-16T11:36:07.424Z,16.55
2019-05-16T11:38:38.500Z,16.59
2019-05-16T11:41:10.890Z,16.79
2019-05-16T11:43:43.099Z,17.06
2019-05-16T11:46:15.191Z,17.25
2019-05-16T11:48:48.872Z,17.39
2019-05-16T11:51:21.539Z,17.55
2019-05-16T11:53:52.817Z,17.69
2019-05-16T11:56:24.749Z,17.72
2019-05-16T11:58:56.980Z,17.75
2019-05-16T12:01:29.289Z,17.63
2019-05-16T12:04:01.610Z,17.65
2019-05-16T12:06:33.863Z,17.70
2019-05-16T12:09:06.987Z,17.74
2019-05-16T12:11:39.109Z,17.82
2019-05-16T12:14:11.892Z,18.07
2019-05-16T12:16:44.238Z,18.24
2019-05-16T12:19:18.158Z,18.44
2019-05-16T12:21:50.489Z,18.44
2019-05-16T12:24:33.102Z,18.73
2019-05-16T12:26:56.929Z,19.01
2019-05-16T12:29:29.379Z,19.07
2019-05-16T12:32:02.933Z,18.97
2019-05-16T12:34:33.132Z,18.84
2019-05-16T12:37:07.394Z,19.17
2019-05-16T12:39:39.189Z,19.48
2019-05-16T12:42:11.580Z,19.60
2019-05-16T12:44:43.999Z,19.45
2019-05-16T12:47:16.501Z,19.18
2019-05-16T12:49:48.968Z,19.05
2019-05-16T12:52:22.471Z,18.71
2019-05-16T12:54:53.447Z,18.40
2019-05-16T12:57:27.612Z,18.30
2019-05-16T12:59:59.425Z,18.18
2019-05-16T13:02:32.739Z,17.95
2019-05-16T13:05:05.443Z,17.85
2019-05-16T13:07:37.922Z,17.82
2019-05-16T13:10:11.079Z,17.68
2019-05-16T13:12:43.291Z,17.55
2019-05-16T13:15:14.812Z,17.39
2019-05-16T13:17:48.583Z,17.40
2019-05-16T13:20:21.009Z,17.68
2019-05-16T13:22:53.312Z,17.88
2019-05-16T13:25:36.994Z,17.99
2019-05-16T13:28:08.303Z,18.08
2019-05-16T13:30:41.473Z,18.22
2019-05-16T13:33:13.847Z,18.63
2019-05-16T13:35:47.245Z,18.74
2019-05-16T13:38:19.960Z,18.62
2019-05-16T13:40:52.419Z,18.52
2019-05-16T13:43:26.883Z,18.43
2019-05-16T13:45:58.640Z,18.41
2019-05-16T13:48:31.021Z,18.38
2019-05-16T13:51:14.372Z,18.53
2019-05-16T13:53:37.373Z,18.82
2019-05-16T13:56:12.943Z,18.95
2019-05-16T13:58:42.159Z,19.03
2019-05-16T14:01:17.210Z,19.14
2019-05-16T14:03:49.289Z,19.07
2019-05-16T14:06:22.393Z,19.07
2019-05-16T14:08:53.309Z,19.12
2019-05-16T14:11:25.199Z,19.01
2019-05-16T14:13:56.435Z,19.23
2019-05-16T14:16:28.460Z,20.00
2019-05-16T14:19:00.658Z,20.66
2019-05-16T14:21:32.880Z,20.79
2019-05-16T14:24:08.500Z,21.06
2019-05-16T14:26:40.063Z,21.32
2019-05-16T14:29:17.672Z,21.33
2019-05-16T14:31:52.810Z,21.44
2019-05-16T14:34:28.157Z,21.65
2019-05-16T14:37:01.398Z,21.33
2019-05-16T14:39:32.478Z,21.14
2019-05-16T14:42:04.379Z,20.80
2019-05-16T14:44:57.576Z,20.80
2019-05-16T14:47:09.450Z,21.06
2019-05-16T14:49:40.599Z,21.25
2019-05-16T14:52:13.032Z,21.23
2019-05-16T14:54:46.943Z,21.10
2019-05-16T14:57:18.729Z,20.59
2019-05-16T14:59:50.689Z,20.55
2019-05-16T15:02:21.747Z,20.25
2019-05-16T15:04:53.642Z,20.32
2019-05-16T15:07:27.663Z,20.15
2019-05-16T15:10:00.473Z,20.01
2019-05-16T15:12:32.889Z,19.87
2019-05-16T15:15:17.044Z,19.87
2019-05-16T15:17:41.709Z,19.80
2019-05-16T15:20:18.297Z,19.84
2019-05-16T15:22:50.703Z,19.79
2019-05-16T15:25:23.289Z,19.74
2019-05-16T15:27:58.019Z,19.74
2019-05-16T15:30:31.219Z,19.80
2019-05-16T15:33:19.836Z,19.90
2019-05-16T15:35:48.978Z,19.89
2019-05-16T15:38:21.306Z,19.94
2019-05-16T15:40:53.450Z,20.01
2019-05-16T15:43:27.470Z,20.05
2019-05-16T15:46:01.112Z,19.92
2019-05-16T15:48:34.020Z,19.95
2019-05-16T15:51:08.983Z,19.89
2019-05-16T15:53:41.819Z,19.82
2019-05-16T15:56:14.499Z,19.76
2019-05-16T15:58:46.930Z,19.68
2019-05-16T16:01:19.709Z,19.63
2019-05-16T16:03:51.894Z,19.55
2019-05-16T16:06:27.500Z,19.49
2019-05-16T16:08:58.952Z,19.45
2019-05-16T16:11:31.185Z,19.34
2019-05-16T16:14:06.948Z,19.24
2019-05-16T16:16:38.512Z,19.16
2019-05-16T16:19:10.737Z,19.10
2019-05-16T16:21:42.848Z,19.01
2019-05-16T16:24:18.628Z,18.93
2019-05-16T16:26:50.716Z,18.84
2019-05-16T16:29:22.838Z,18.75
2019-05-16T16:31:56.904Z,18.69
2019-05-16T16:34:29.877Z,18.61
2019-05-16T16:37:02.938Z,18.55
2019-05-16T16:39:37.750Z,18.51
2019-05-16T16:42:12.911Z,18.44
2019-05-16T16:44:52.354Z,18.32
2019-05-16T16:47:26.956Z,18.22
2019-05-16T16:49:59.639Z,18.11
2019-05-16T16:52:32.109Z,18.06
2019-05-16T16:55:07.205Z,18.01
2019-05-16T16:57:38.824Z,17.94
2019-05-16T17:00:12.021Z,17.89
2019-05-16T17:02:59.396Z,17.84
2019-05-16T17:05:19.109Z,17.78
2019-05-16T17:07:51.189Z,17.71
2019-05-16T17:10:22.307Z,17.64
2019-05-16T17:12:54.289Z,17.52
2019-05-16T17:15:27.208Z,17.52
2019-05-16T17:17:59.120Z,17.46
2019-05-16T17:20:31.220Z,17.47
2019-05-16T17:23:02.307Z,17.40
2019-05-16T17:25:36.677Z,17.31
2019-05-16T17:28:08.849Z,17.30
2019-05-16T17:30:41.188Z,17.24
2019-05-16T17:33:13.599Z,17.20
2019-05-16T17:35:48.315Z,17.16
2019-05-16T17:38:19.369Z,17.08
2019-05-16T17:40:51.667Z,17.09
2019-05-16T17:43:23.831Z,17.07
2019-05-16T17:45:57.528Z,17.04
2019-05-16T17:48:30.651Z,16.99
2019-05-16T17:51:05.737Z,16.96
2019-05-16T17:53:39.297Z,16.93
2019-05-16T17:56:16.898Z,16.91
2019-05-16T17:58:51.083Z,16.86
2019-05-16T18:01:24.130Z,16.86
2019-05-16T18:03:57.365Z,16.86
2019-05-16T18:06:30.469Z,16.86
2019-05-16T18:09:06.604Z,16.83
2019-05-16T18:11:40.139Z,16.78
2019-05-16T18:14:17.880Z,16.73
2019-05-16T18:16:58.545Z,16.70
2019-05-16T18:19:29.049Z,16.67
2019-05-16T18:22:03.719Z,16.66
2019-05-16T18:24:41.659Z,16.63
2019-05-16T18:27:14.524Z,16.63
2019-05-16T18:29:52.727Z,16.58
2019-05-16T18:32:27.449Z,16.56
2019-05-16T18:35:02.052Z,16.54
2019-05-16T18:37:35.490Z,16.48
2019-05-16T18:40:09.739Z,16.44
2019-05-16T18:42:42.456Z,16.40
2019-05-16T18:45:17.169Z,16.36
2019-05-16T18:47:52.759Z,16.30
2019-05-16T18:50:29.945Z,16.23
2019-05-16T18:53:03.657Z,16.17
2019-05-16T18:55:37.038Z,16.15
2019-05-16T18:58:11.460Z,16.10
2019-05-16T19:00:43.911Z,16.05
2019-05-16T19:03:16.729Z,16.01
2019-05-16T19:05:50.778Z,15.97
2019-05-16T19:08:23.099Z,15.95
2019-05-16T19:10:56.893Z,15.93
2019-05-16T19:13:30.869Z,15.89
2019-05-16T19:16:06.260Z,15.81
2019-05-16T19:18:38.111Z,15.72
2019-05-16T19:21:09.387Z,15.63
2019-05-16T19:23:41.850Z,15.56
2019-05-16T19:26:17.269Z,15.55
2019-05-16T19:28:57.116Z,15.55
2019-05-16T19:31:31.598Z,15.51
2019-05-16T19:34:07.095Z,15.43
2019-05-16T19:36:39.828Z,15.41
2019-05-16T19:39:13.750Z,15.43
2019-05-16T19:41:47.010Z,15.41
2019-05-16T19:44:20.609Z,15.38
2019-05-16T19:46:54.359Z,15.36
2019-05-16T19:49:27.645Z,15.36
2019-05-16T19:51:58.367Z,15.34
2019-05-16T19:54:31.519Z,15.29
2019-05-16T19:57:03.829Z,15.25
2019-05-16T19:59:36.686Z,15.24
2019-05-16T20:02:10.542Z,15.20
2019-05-16T20:04:42.950Z,15.18
2019-05-16T20:07:16.812Z,15.19
2019-05-16T20:09:50.119Z,15.22
2019-05-16T20:12:22.418Z,15.25
2019-05-16T20:15:06.851Z,15.26
2019-05-16T20:17:27.438Z,15.23
2019-05-16T20:19:59.778Z,15.20
2019-05-16T20:22:30.717Z,15.18
2019-05-16T20:25:03.599Z,15.17
2019-05-16T20:27:36.713Z,15.15
2019-05-16T20:30:10.606Z,15.16
2019-05-16T20:32:44.159Z,15.16
2019-05-16T20:35:17.487Z,15.18
2019-05-16T20:37:50.149Z,15.22
2019-05-16T20:40:22.871Z,15.22
2019-05-16T20:42:56.405Z,15.23
2019-05-16T20:45:28.669Z,15.24
2019-05-16T20:48:11.110Z,15.23
2019-05-16T20:50:34.549Z,15.23
2019-05-16T20:53:07.497Z,15.23
2019-05-16T20:55:40.796Z,15.23
2019-05-16T20:58:16.388Z,15.20
2019-05-16T21:00:49.771Z,15.18
2019-05-16T21:03:23.268Z,15.17
2019-05-16T21:05:57.880Z,15.17
2019-05-16T21:08:28.319Z,15.17
2019-05-16T21:10:59.637Z,15.15
2019-05-16T21:13:31.799Z,15.17
2019-05-16T21:16:04.019Z,15.17
2019-05-16T21:18:37.675Z,15.18
2019-05-16T21:21:10.379Z,15.19
2019-05-16T21:23:42.918Z,15.19
2019-05-16T21:26:15.449Z,15.18
2019-05-16T21:28:51.035Z,15.17
2019-05-16T21:31:23.900Z,15.15
2019-05-16T21:33:56.582Z,15.15
2019-05-16T21:36:29.093Z,15.15
2019-05-16T21:39:02.689Z,15.14
2019-05-16T21:41:36.664Z,15.15
2019-05-16T21:44:08.948Z,15.15
2019-05-16T21:46:39.867Z,15.12
2019-05-16T21:49:12.236Z,15.11
2019-05-16T21:51:46.427Z,15.08
2019-05-16T21:54:18.170Z,15.09
2019-05-16T21:56:49.457Z,15.08
2019-05-16T21:59:21.741Z,15.08
2019-05-16T22:01:56.470Z,15.06
2019-05-16T22:04:29.779Z,15.07
2019-05-16T22:07:02.029Z,15.08
2019-05-16T22:09:37.016Z,15.08
2019-05-16T22:12:12.239Z,15.12
2019-05-16T22:14:50.829Z,15.13
2019-05-16T22:17:27.464Z,15.15
2019-05-16T22:20:00.229Z,15.14
2019-05-16T22:22:31.447Z,15.14
2019-05-16T22:25:03.401Z,15.14
2019-05-16T22:27:34.787Z,15.14
2019-05-16T22:30:10.709Z,15.15
2019-05-16T22:32:42.629Z,15.16
2019-05-16T22:35:16.823Z,15.18
2019-05-16T22:37:55.484Z,15.19
2019-05-16T22:40:26.537Z,15.21
2019-05-16T22:42:58.329Z,15.22
2019-05-16T22:45:30.431Z,15.22
2019-05-16T22:48:02.489Z,15.22
2019-05-16T22:50:36.462Z,15.22
2019-05-16T22:53:08.672Z,15.21
2019-05-16T22:55:40.660Z,15.19
2019-05-16T22:58:12.832Z,15.19
2019-05-16T23:00:43.999Z,15.19
2019-05-16T23:03:17.363Z,15.18
2019-05-16T23:05:50.684Z,15.11
2019-05-16T23:08:21.565Z,15.17
2019-05-16T23:10:53.410Z,15.16
2019-05-16T23:13:26.396Z,15.15
2019-05-16T23:15:58.860Z,15.13
2019-05-16T23:18:31.908Z,15.14
2019-05-16T23:21:06.215Z,15.17
2019-05-16T23:23:37.827Z,15.17
2019-05-16T23:26:10.029Z,15.15
2019-05-16T23:28:42.088Z,15.15
2019-05-16T23:31:16.492Z,15.13
2019-05-16T23:33:47.708Z,15.15
2019-05-16T23:36:20.028Z,15.16
2019-05-16T23:38:51.067Z,15.17
2019-05-16T23:41:22.829Z,15.17
2019-05-16T23:43:56.673Z,15.15
2019-05-16T23:46:28.778Z,15.17
2019-05-16T23:49:00.849Z,15.19
2019-05-16T23:51:32.849Z,15.19
2019-05-16T23:54:06.693Z,15.20
2019-05-16T23:56:38.649Z,15.18
2019-05-16T23:59:10.607Z,15.19
